Time;durP1;ratioP1;P1;durP2;ratioP2;P2;SDS_P1;SDS_P2;PMS_P1;PMS_P2;Temp;Humidity;BMP_temperature;BMP_pressure;BME280_temperature;BME280_humidity;BME280_pressure;Samples;Min_cycle;Max_cycle;Signal;HPM_P1;HPM_P2
2022/06/09 00:00:01;;;;;;;;;7.00;3.25;;;;;16.97;50.44;100879.03;4943361;28;47043;-52
2022/06/09 00:02:29;;;;;;;;;4.00;2.25;;;;;16.90;50.45;100870.41;4943725;28;45477;-52
2022/06/09 00:04:55;;;;;;;;;4.50;3.00;;;;;16.88;50.47;100879.38;4943743;28;45500;-50
2022/06/09 00:07:24;;;;;;;;;3.00;1.50;;;;;16.84;50.62;100880.38;4942232;28;45392;-48
2022/06/09 00:09:57;;;;;;;;;2.00;2.00;;;;;16.84;50.56;100885.69;4941766;28;46890;-50
2022/06/09 00:12:24;;;;;;;;;2.00;2.00;;;;;16.79;50.34;100885.88;4943560;28;45233;-48
2022/06/09 00:14:49;;;;;;;;;2.75;1.00;;;;;16.73;50.32;100886.13;4943508;28;45648;-48
2022/06/09 00:17:15;;;;;;;;;3.00;2.00;;;;;16.74;50.38;100893.13;4943468;28;45235;-51
2022/06/09 00:19:41;;;;;;;;;1.75;1.75;;;;;16.73;50.53;100897.59;4943217;28;45862;-50
2022/06/09 00:22:07;;;;;;;;;3.25;2.00;;;;;16.72;50.34;100898.50;4943204;28;45335;-53
2022/06/09 00:24:33;;;;;;;;;2.25;2.25;;;;;16.71;50.56;100901.22;4941928;28;45334;-49
2022/06/09 00:26:58;;;;;;;;;3.50;2.00;;;;;16.69;50.77;100905.69;4943431;28;45339;-48
2022/06/09 00:29:23;;;;;;;;;2.00;2.00;;;;;16.67;50.79;100915.53;4941799;28;46214;-49
2022/06/09 00:31:48;;;;;;;;;3.50;3.00;;;;;16.63;50.54;100914.78;4943135;28;45359;-50
2022/06/09 00:34:14;;;;;;;;;6.00;1.00;;;;;16.56;50.66;100911.50;4943318;28;45236;-53
2022/06/09 00:36:39;;;;;;;;;3.00;2.75;;;;;16.52;50.78;100920.47;4943259;28;45303;-50
2022/06/09 00:39:05;;;;;;;;;2.75;1.50;;;;;16.48;50.69;100918.00;4942657;28;45333;-52
2022/06/09 00:41:40;;;;;;;;;2.50;1.00;;;;;16.51;50.57;100928.47;4942896;28;45195;-51
2022/06/09 00:44:20;;;;;;;;;3.00;3.00;;;;;16.47;50.87;100925.06;4941996;28;45191;-51
2022/06/09 00:47:05;;;;;;;;;3.50;2.25;;;;;16.45;50.51;100929.53;4942910;28;45521;-49
2022/06/09 00:49:35;;;;;;;;;3.00;2.50;;;;;16.42;50.87;100925.22;4942691;28;46166;-51
2022/06/09 00:52:05;;;;;;;;;4.25;4.00;;;;;16.39;50.97;100922.69;4942841;28;45417;-53
2022/06/09 00:54:43;;;;;;;;;2.00;2.00;;;;;16.39;50.80;100925.34;4942884;28;45299;-52
2022/06/09 00:57:17;;;;;;;;;4.50;2.50;;;;;16.37;50.98;100923.66;4942522;28;45305;-53
2022/06/09 00:59:50;;;;;;;;;1.75;1.50;;;;;16.33;51.08;100916.75;4942860;28;46656;-52
2022/06/09 01:02:18;;;;;;;;;2.50;2.50;;;;;16.32;50.94;100920.31;4942567;28;45322;-50
2022/06/09 01:04:47;;;;;;;;;2.50;2.50;;;;;16.29;50.85;100923.06;4942956;28;45412;-52
2022/06/09 01:07:18;;;;;;;;;4.00;2.75;;;;;16.27;51.32;100931.06;4942721;28;45482;-48
2022/06/09 01:09:44;;;;;;;;;3.25;2.00;;;;;16.20;50.88;100927.78;4942246;28;46219;-51
2022/06/09 01:12:21;;;;;;;;;5.50;2.50;;;;;16.21;51.20;100933.94;4942653;28;45485;-52
2022/06/09 01:14:47;;;;;;;;;1.00;1.00;;;;;16.17;51.05;100943.78;4942588;28;45393;-49
2022/06/09 01:17:20;;;;;;;;;2.75;1.00;;;;;16.13;51.08;100926.25;4942427;28;45356;-50
2022/06/09 01:20:01;;;;;;;;;3.75;3.00;;;;;16.14;51.29;100932.41;4942348;28;46320;-49
2022/06/09 01:22:43;;;;;;;;;2.50;2.50;;;;;16.12;51.15;100935.13;4942614;28;45278;-52
2022/06/09 01:25:23;;;;;;;;;5.25;4.00;;;;;16.09;51.53;100937.88;4941006;28;45233;-51
2022/06/09 01:28:27;;;;;;;;;3.00;3.00;;;;;16.02;51.60;100941.66;4941016;28;45821;-51
2022/06/09 01:31:04;;;;;;;;;5.50;2.25;;;;;15.99;51.77;100936.47;4926485;28;46397;-52
2022/06/09 01:33:58;;;;;;;;;2.75;2.75;;;;;15.94;51.52;100944.56;4942327;28;45398;-51
2022/06/09 01:36:53;;;;;;;;;2.50;2.50;;;;;15.93;51.72;100950.78;4942599;28;45371;-48
2022/06/09 01:39:41;;;;;;;;;7.50;2.25;;;;;15.86;51.82;100943.94;4940884;28;45470;-53
2022/06/09 01:42:32;;;;;;;;;3.00;2.00;;;;;15.87;51.49;100957.16;4941961;28;46464;-53
2022/06/09 01:45:09;;;;;;;;;3.50;2.50;;;;;15.84;51.59;100951.09;4942131;28;45473;-50
2022/06/09 01:47:41;;;;;;;;;5.25;3.50;;;;;15.82;51.27;100953.78;4941956;28;45333;-52
2022/06/09 01:50:12;;;;;;;;;3.25;1.75;;;;;15.79;52.02;100953.00;4941935;28;45411;-49
2022/06/09 01:52:41;;;;;;;;;4.00;2.75;;;;;15.79;52.02;100966.25;4941760;28;45259;-52
2022/06/09 01:55:09;;;;;;;;;2.75;2.75;;;;;15.76;51.64;100959.28;4941540;28;45410;-53
2022/06/09 01:57:38;;;;;;;;;3.00;3.00;;;;;15.71;51.78;100966.47;4942064;28;45583;-51
2022/06/09 02:00:09;;;;;;;;;2.50;2.50;;;;;15.68;51.93;100964.78;4941456;28;45240;-49
2022/06/09 02:02:41;;;;;;;;;3.50;3.00;;;;;15.65;52.44;100969.34;4941545;28;47292;-53
2022/06/09 02:05:38;;;;;;;;;2.75;1.25;;;;;15.60;52.55;100972.97;4941784;28;45380;-49
2022/06/09 02:08:06;;;;;;;;;4.50;2.00;;;;;15.59;52.47;100981.84;4940961;28;45569;-51
2022/06/09 02:10:38;;;;;;;;;2.25;1.25;;;;;15.60;52.12;100974.78;4940052;28;45501;-48
2022/06/09 02:13:27;;;;;;;;;3.00;3.00;;;;;15.57;52.16;100980.16;4941557;28;45458;-50
2022/06/09 02:15:57;;;;;;;;;3.00;3.00;;;;;15.57;52.46;100981.03;4941446;28;45210;-51
2022/06/09 02:18:26;;;;;;;;;2.25;1.75;;;;;15.53;52.50;100987.31;4941632;28;45317;-49
2022/06/09 02:20:57;;;;;;;;;5.75;2.00;;;;;15.53;52.38;100984.69;4941588;28;45185;-51
2022/06/09 02:23:22;;;;;;;;;6.00;3.00;;;;;15.53;52.31;100978.53;4941445;28;46321;-53
2022/06/09 02:25:48;;;;;;;;;2.50;1.75;;;;;15.50;52.66;100987.44;4941514;28;45420;-51
2022/06/09 02:28:13;;;;;;;;;8.00;4.00;;;;;15.49;52.38;100991.00;4941787;28;45260;-51
2022/06/09 02:30:39;;;;;;;;;9.25;3.00;;;;;15.50;52.68;100990.09;4941245;28;45652;-52
2022/06/09 02:33:05;;;;;;;;;3.00;3.00;;;;;15.48;52.59;100978.66;4941456;28;45319;-52
2022/06/09 02:35:31;;;;;;;;;4.25;3.00;;;;;15.46;52.37;100974.31;4941498;28;45378;-50
2022/06/09 02:38:00;;;;;;;;;7.25;3.00;;;;;15.49;52.37;100982.19;4941387;28;45244;-53
2022/06/09 02:40:25;;;;;;;;;4.25;3.00;;;;;15.49;52.87;100985.69;4940852;28;45267;-56
2022/06/09 02:42:51;;;;;;;;;5.75;4.00;;;;;15.48;52.36;100991.03;4941596;28;45439;-51
2022/06/09 02:45:16;;;;;;;;;3.75;3.25;;;;;15.47;52.52;100986.66;4939954;28;48955;-52
2022/06/09 02:47:42;;;;;;;;;3.75;3.00;;;;;15.48;52.93;100991.03;4941339;28;45350;-47
2022/06/09 02:50:08;;;;;;;;;5.50;4.00;;;;;15.45;52.55;100986.72;4941152;28;45303;-49
2022/06/09 02:52:33;;;;;;;;;6.50;1.75;;;;;15.45;52.54;100989.34;4941201;28;45359;-51
2022/06/09 02:54:59;;;;;;;;;4.25;2.50;;;;;15.42;52.88;100994.72;4941038;28;45361;-51
2022/06/09 02:57:24;;;;;;;;;5.75;2.75;;;;;15.34;53.08;100989.66;4941526;28;45329;-48
2022/06/09 02:59:53;;;;;;;;;3.75;3.00;;;;;15.34;53.22;100994.13;4941093;28;45322;-51
2022/06/09 03:02:19;;;;;;;;;2.00;1.75;;;;;15.33;53.21;100987.06;4941160;28;45228;-52
2022/06/09 03:04:45;;;;;;;;;3.00;3.00;;;;;15.34;52.89;100992.31;4939839;28;45280;-49
2022/06/09 03:07:12;;;;;;;;;9.00;3.50;;;;;15.30;53.06;100984.53;4941270;28;45320;-52
2022/06/09 03:09:37;;;;;;;;;4.00;3.25;;;;;15.31;52.76;100984.47;4940922;28;45390;-52
2022/06/09 03:12:03;;;;;;;;;4.00;3.00;;;;;15.28;52.83;100980.16;4940953;28;46057;-52
2022/06/09 03:14:29;;;;;;;;;6.00;3.50;;;;;15.28;53.30;100997.78;4943878;28;45934;-51
2022/06/09 03:16:54;;;;;;;;;6.00;4.50;;;;;15.27;53.45;100989.00;4944521;28;45288;-51
2022/06/09 03:19:19;;;;;;;;;2.25;2.25;;;;;15.28;53.08;100992.50;4944365;28;45408;-50
2022/06/09 03:21:45;;;;;;;;;3.00;3.00;;;;;15.25;53.04;100990.81;4943053;28;47027;-51
2022/06/09 03:24:10;;;;;;;;;3.75;2.50;;;;;15.25;53.49;100990.81;4944116;28;45272;-48
2022/06/09 03:26:36;;;;;;;;;5.25;3.50;;;;;15.22;53.68;100988.28;4944471;28;45239;-49
2022/06/09 03:29:01;;;;;;;;;6.00;3.00;;;;;15.23;53.12;100999.72;4944314;28;45232;-52
2022/06/09 03:31:26;;;;;;;;;4.50;1.50;;;;;15.22;53.20;101003.28;4943835;28;45388;-53
2022/06/09 03:33:52;;;;;;;;;4.75;2.75;;;;;15.19;53.28;100995.44;4944064;28;45243;-51
2022/06/09 03:36:17;;;;;;;;;4.25;3.00;;;;;15.19;53.22;100998.94;4944093;28;45237;-52
2022/06/09 03:38:43;;;;;;;;;2.25;2.00;;;;;15.20;53.12;101005.97;4943782;28;45435;-51
2022/06/09 03:41:08;;;;;;;;;6.75;3.00;;;;;15.21;53.11;101006.84;4943650;28;45366;-53
2022/06/09 03:43:35;;;;;;;;;4.25;4.00;;;;;15.20;53.69;101016.56;4944054;28;45287;-52
2022/06/09 03:46:01;;;;;;;;;3.75;2.75;;;;;15.19;53.21;101016.59;4943766;28;45454;-51
2022/06/09 03:48:27;;;;;;;;;5.00;4.25;;;;;15.19;53.75;101020.09;4943788;28;45636;-50
2022/06/09 03:50:53;;;;;;;;;4.75;3.50;;;;;15.20;53.31;101029.78;4943566;28;46498;-53
2022/06/09 03:53:18;;;;;;;;;6.25;3.50;;;;;15.15;53.29;101026.41;4943578;28;45339;-51
2022/06/09 03:55:43;;;;;;;;;3.75;3.25;;;;;15.09;53.71;101027.47;4943919;28;45308;-49
2022/06/09 03:58:09;;;;;;;;;3.00;2.75;;;;;15.13;53.88;101037.97;4943754;28;45465;-50
2022/06/09 04:00:34;;;;;;;;;10.25;4.50;;;;;15.10;53.74;101033.63;4943551;28;45270;-52
2022/06/09 04:03:00;;;;;;;;;7.75;3.50;;;;;15.11;53.89;101038.00;4943618;28;45348;-50
2022/06/09 04:05:27;;;;;;;;;5.75;3.50;;;;;15.10;53.75;101041.56;4943860;28;45382;-52
2022/06/09 04:07:52;;;;;;;;;5.50;4.00;;;;;15.06;54.05;101054.00;4943655;28;45227;-51
2022/06/09 04:10:22;;;;;;;;;4.75;4.00;;;;;15.06;54.09;101053.16;4943003;28;46206;-48
2022/06/09 04:12:48;;;;;;;;;4.00;4.00;;;;;15.01;54.21;101049.78;4942309;28;45311;-51
2022/06/09 04:15:15;;;;;;;;;7.75;4.50;;;;;15.00;53.90;101048.03;4943445;28;45347;-49
2022/06/09 04:17:41;;;;;;;;;5.00;2.00;;;;;14.98;54.30;101055.13;4943124;28;45484;-50
2022/06/09 04:20:08;;;;;;;;;5.75;4.75;;;;;14.93;54.06;101056.13;4943433;28;45406;-50
2022/06/09 04:22:33;;;;;;;;;7.25;4.00;;;;;14.94;54.34;101055.22;4943132;28;45248;-52
2022/06/09 04:24:59;;;;;;;;;3.50;3.00;;;;;14.96;54.47;101063.13;4943064;28;45299;-51
2022/06/09 04:27:24;;;;;;;;;4.25;3.75;;;;;14.98;54.29;101076.31;4943262;28;45255;-48
2022/06/09 04:29:50;;;;;;;;;6.00;2.75;;;;;14.97;54.40;101075.44;4943297;28;47092;-53
2022/06/09 04:32:15;;;;;;;;;2.50;2.25;;;;;14.96;53.86;101073.69;4942992;28;45362;-52
2022/06/09 04:34:42;;;;;;;;;10.50;5.00;;;;;14.97;54.22;101077.22;4943232;28;45308;-51
2022/06/09 04:37:08;;;;;;;;;8.50;5.00;;;;;14.94;54.07;101083.44;4943188;28;45319;-51
2022/06/09 04:39:33;;;;;;;;;5.50;3.75;;;;;14.95;54.58;101087.84;4942531;28;46237;-49
2022/06/09 04:41:58;;;;;;;;;5.50;3.75;;;;;14.94;54.18;101088.75;4942878;28;49087;-50
2022/06/09 04:44:24;;;;;;;;;5.25;3.25;;;;;14.94;54.24;101097.56;4941994;28;45321;-50
2022/06/09 04:46:49;;;;;;;;;6.50;3.00;;;;;14.96;54.37;101092.22;4941547;28;47617;-51
2022/06/09 04:49:14;;;;;;;;;4.25;4.25;;;;;14.98;54.05;101094.81;4942729;28;46119;-48
2022/06/09 04:51:40;;;;;;;;;4.75;4.75;;;;;14.94;54.18;101101.97;4942600;28;55141;-52
2022/06/09 04:54:05;;;;;;;;;5.25;3.00;;;;;14.95;54.12;101104.59;4942885;28;45263;-52
2022/06/09 04:56:30;;;;;;;;;4.75;3.00;;;;;14.95;54.78;101103.72;4942832;28;45410;-51
2022/06/09 04:58:56;;;;;;;;;5.50;2.75;;;;;14.94;54.83;101108.16;4942635;28;46199;-49
2022/06/09 05:01:31;;;;;;;;;5.75;3.75;;;;;14.96;54.71;101118.69;4942811;28;45228;-53
2022/06/09 05:03:58;;;;;;;;;4.25;3.25;;;;;14.96;54.37;101118.69;4942768;28;45172;-49
2022/06/09 05:06:25;;;;;;;;;3.75;3.75;;;;;14.94;55.04;101124.03;4942658;28;45427;-49
2022/06/09 05:08:53;;;;;;;;;7.00;5.75;;;;;14.95;54.34;101131.06;4942381;28;46262;-49
2022/06/09 05:11:20;;;;;;;;;5.25;5.25;;;;;14.94;54.53;101128.44;4942336;28;45376;-49
2022/06/09 05:13:46;;;;;;;;;7.75;4.00;;;;;14.97;54.66;101125.72;4941378;28;45316;-52
2022/06/09 05:16:12;;;;;;;;;4.50;2.25;;;;;14.97;54.45;101132.78;4942379;28;45181;-53
2022/06/09 05:18:39;;;;;;;;;4.50;2.25;;;;;14.98;54.84;101140.69;4942375;28;45256;-50
2022/06/09 05:21:05;;;;;;;;;5.50;3.75;;;;;14.99;54.61;101133.63;4942301;28;45228;-51
2022/06/09 05:23:31;;;;;;;;;6.25;4.00;;;;;15.01;54.70;101143.25;4942383;28;45381;-52
2022/06/09 05:25:59;;;;;;;;;6.00;4.00;;;;;15.02;54.90;101141.47;4942297;28;45430;-52
2022/06/09 05:28:26;;;;;;;;;9.50;5.50;;;;;15.05;54.80;101138.75;4942277;28;46050;-53
2022/06/09 05:30:52;;;;;;;;;7.00;6.00;;;;;15.04;54.84;101147.59;4941988;28;45240;-48
2022/06/09 05:33:18;;;;;;;;;5.50;3.50;;;;;15.05;54.50;101147.53;4942401;28;45391;-50
2022/06/09 05:35:44;;;;;;;;;7.50;3.50;;;;;15.11;54.80;101151.81;4941137;28;45549;-51
2022/06/09 05:46:25;;;;;;;;;6.50;2.75;;;;;15.17;54.82;101170.19;4942104;28;45229;-50
2022/06/09 05:48:51;;;;;;;;;7.25;6.50;;;;;15.19;54.93;101164.84;4941694;28;46482;-52
2022/06/09 05:51:17;;;;;;;;;8.75;4.75;;;;;15.22;54.90;101170.94;4941991;28;45328;-51
2022/06/09 05:53:43;;;;;;;;;5.00;4.00;;;;;15.21;54.96;101166.53;4941834;28;45316;-53
2022/06/09 05:56:09;;;;;;;;;6.50;4.25;;;;;15.21;55.03;101169.19;4942112;28;45485;-48
2022/06/09 05:58:35;;;;;;;;;4.50;2.50;;;;;15.26;54.83;101182.31;4941618;28;45460;-51
2022/06/09 06:01:04;;;;;;;;;5.00;3.75;;;;;15.30;54.86;101173.38;4941497;28;45220;-54
2022/06/09 06:03:29;;;;;;;;;6.50;5.00;;;;;15.31;54.54;101174.22;4941734;28;45241;-53
2022/06/09 06:08:39;;;;;;;;;4.25;3.75;;;;;15.39;54.76;101181.06;4941564;28;45922;-52
2022/06/09 06:11:05;;;;;;;;;4.75;4.00;;;;;15.42;54.56;101169.50;4941809;28;45300;-49
2022/06/09 06:13:30;;;;;;;;;5.00;3.00;;;;;15.44;54.99;101184.47;4941877;28;45535;-53
2022/06/09 06:15:56;;;;;;;;;6.00;3.75;;;;;15.46;55.12;101187.06;4941664;28;45481;-51
2022/06/09 06:18:21;;;;;;;;;4.00;3.25;;;;;15.47;54.84;101187.94;4941556;28;45226;-51
2022/06/09 06:20:46;;;;;;;;;6.75;4.00;;;;;15.45;54.70;101185.31;4941883;28;45502;-53
2022/06/09 06:23:12;;;;;;;;;4.25;3.75;;;;;15.50;54.73;101199.31;4941527;28;45321;-51
2022/06/09 06:25:37;;;;;;;;;6.00;4.00;;;;;15.57;54.74;101200.88;4941791;28;45288;-48
2022/06/09 06:28:02;;;;;;;;;3.75;3.50;;;;;15.58;54.85;101191.16;4940128;28;48139;-51
2022/06/09 06:30:28;;;;;;;;;3.75;3.75;;;;;15.62;54.70;101206.03;4941548;28;45528;-54
2022/06/09 06:32:55;;;;;;;;;6.50;3.75;;;;;15.65;54.83;101200.66;4941288;28;45493;-52
2022/06/09 06:35:20;;;;;;;;;7.00;5.25;;;;;15.74;55.09;101204.84;4941703;28;45374;-50
2022/06/09 06:37:46;;;;;;;;;6.00;4.75;;;;;15.79;54.64;101213.53;4941271;28;45271;-51
2022/06/09 06:40:13;;;;;;;;;17.75;12.50;;;;;15.83;54.95;101215.19;4940851;28;45169;-52
2022/06/09 06:42:39;;;;;;;;;20.75;18.25;;;;;15.89;54.65;101217.66;4941256;28;45536;-51
2022/06/09 06:45:05;;;;;;;;;21.75;19.25;;;;;15.93;55.06;101213.16;4940908;28;45557;-53
2022/06/09 06:47:31;;;;;;;;;132.75;127.00;;;;;15.96;54.67;101220.16;4942299;28;45344;-47
2022/06/09 06:49:56;;;;;;;;;11.75;9.75;;;;;16.00;54.61;101214.72;4944259;28;45367;-51
2022/06/09 06:52:23;;;;;;;;;62.67;51.67;;;;;16.01;54.70;101212.94;4944477;28;45343;-47
2022/06/09 06:54:48;;;;;;;;;6.00;6.00;;;;;16.03;54.87;101227.88;4944470;28;45513;-50
2022/06/09 06:57:13;;;;;;;;;8.00;4.50;;;;;16.02;54.70;101222.63;4943102;28;45854;-51
2022/06/09 06:59:39;;;;;;;;;6.50;6.00;;;;;16.06;54.55;101221.59;4944512;28;46045;-50
2022/06/09 07:02:04;;;;;;;;;8.25;7.25;;;;;16.09;54.28;101229.50;4944618;28;45279;-46
2022/06/09 07:04:30;;;;;;;;;7.50;4.25;;;;;16.13;54.75;101230.28;4944548;28;45439;-52
2022/06/09 07:06:56;;;;;;;;;5.00;5.00;;;;;16.14;54.41;101240.81;4943132;28;46250;-48
2022/06/09 07:09:22;;;;;;;;;5.00;4.00;;;;;16.17;54.18;101231.91;4942904;28;45281;-50
2022/06/09 07:11:47;;;;;;;;;9.75;6.00;;;;;16.24;54.44;101239.63;4944312;28;45614;-50
2022/06/09 07:14:13;;;;;;;;;10.00;6.00;;;;;16.29;54.68;101247.47;4944355;28;45428;-48
2022/06/09 07:16:38;;;;;;;;;8.00;6.50;;;;;16.36;54.61;101256.09;4944063;28;45967;-51
2022/06/09 07:19:04;;;;;;;;;7.50;6.75;;;;;16.42;54.28;101261.22;4944260;28;45676;-49
2022/06/09 07:21:30;;;;;;;;;11.00;6.50;;;;;16.47;54.46;101259.28;4944366;28;45396;-49
2022/06/09 07:23:55;;;;;;;;;6.75;6.00;;;;;16.53;54.06;101260.88;4944090;28;45431;-50
2022/06/09 07:26:21;;;;;;;;;6.75;5.75;;;;;16.60;54.07;101253.59;4944156;28;45434;-51
2022/06/09 07:28:46;;;;;;;;;7.00;5.00;;;;;16.60;54.03;101254.44;4944282;28;45302;-51
2022/06/09 07:31:11;;;;;;;;;10.00;6.25;;;;;16.72;53.84;101275.31;4944134;28;45275;-50
2022/06/09 07:33:38;;;;;;;;;6.25;4.50;;;;;16.79;54.06;101276.00;4944162;28;45251;-51
2022/06/09 07:36:06;;;;;;;;;6.00;4.50;;;;;16.84;53.93;101268.75;4943955;28;47065;-50
2022/06/09 07:38:33;;;;;;;;;6.00;6.00;;;;;16.95;53.69;101270.22;4943680;28;45316;-49
2022/06/09 07:40:58;;;;;;;;;6.25;5.00;;;;;17.02;53.85;101279.72;4943761;28;45309;-48
2022/06/09 07:43:24;;;;;;;;;10.00;6.00;;;;;17.08;53.64;101287.50;4943892;28;45366;-49
2022/06/09 07:45:50;;;;;;;;;9.25;6.25;;;;;17.14;53.56;101281.09;4943620;28;45262;-52
2022/06/09 07:48:19;;;;;;;;;7.00;6.00;;;;;17.13;53.57;101285.56;4943970;28;45405;-52
2022/06/09 07:50:46;;;;;;;;;5.00;5.00;;;;;17.19;53.27;101280.03;4943645;28;45447;-51
2022/06/09 07:53:12;;;;;;;;;8.50;7.00;;;;;17.27;53.41;101286.88;4943491;28;45374;-51
2022/06/09 07:55:38;;;;;;;;;6.75;6.50;;;;;17.32;53.50;101282.25;4943515;28;45352;-53
2022/06/09 07:58:04;;;;;;;;;5.75;5.00;;;;;17.37;53.27;101286.50;4943450;28;45283;-50
2022/06/09 08:00:30;;;;;;;;;7.00;3.00;;;;;17.38;53.19;101290.03;4943463;28;45332;-50
2022/06/09 08:02:55;;;;;;;;;6.00;5.50;;;;;17.39;53.30;101283.78;4943537;28;45282;-50
2022/06/09 08:05:24;;;;;;;;;8.50;5.00;;;;;17.44;53.07;101292.47;4943301;28;46414;-48
2022/06/09 08:07:49;;;;;;;;;5.00;4.50;;;;;17.48;52.86;101296.78;4943818;28;45445;-51
2022/06/09 08:10:18;;;;;;;;;6.00;5.00;;;;;17.53;52.80;101296.59;4943211;28;45248;-50
2022/06/09 08:12:45;;;;;;;;;5.00;3.75;;;;;17.58;52.68;101296.47;4943630;28;45223;-52
2022/06/09 08:15:11;;;;;;;;;6.75;3.75;;;;;17.61;52.47;101297.22;4943123;28;46059;-49
2022/06/09 08:17:38;;;;;;;;;6.25;3.25;;;;;17.68;52.75;101309.38;4943386;28;45324;-49
2022/06/09 08:20:05;;;;;;;;;7.00;5.00;;;;;17.66;52.75;101312.97;4942167;28;45318;-51
2022/06/09 08:22:30;;;;;;;;;7.25;5.00;;;;;17.70;52.81;101302.19;4943151;28;45274;-50
2022/06/09 08:24:56;;;;;;;;;5.50;4.00;;;;;17.74;52.38;101308.28;4943146;28;45539;-50
2022/06/09 08:27:21;;;;;;;;;8.75;4.50;;;;;17.76;52.34;101309.09;4943361;28;45156;-49
2022/06/09 08:29:46;;;;;;;;;5.25;4.00;;;;;17.76;52.54;101319.75;4943337;28;45236;-51
2022/06/09 08:32:13;;;;;;;;;6.25;4.50;;;;;17.78;52.11;101314.38;4942999;28;45413;-51
2022/06/09 08:34:38;;;;;;;;;5.00;5.00;;;;;17.81;52.35;101315.13;4943085;28;46256;-49
2022/06/09 08:37:04;;;;;;;;;5.00;5.00;;;;;17.86;52.18;101317.59;4943058;28;45292;-52
2022/06/09 08:39:30;;;;;;;;;5.75;5.75;;;;;17.90;52.15;101329.00;4942975;28;45292;-52
2022/06/09 08:42:11;;;;;;;;;5.75;4.00;;;;;17.93;52.06;101320.94;4943020;28;45312;-52
2022/06/09 08:44:55;;;;;;;;;3.00;3.00;;;;;17.90;51.97;101315.69;4943330;28;45307;-52
2022/06/09 08:47:37;;;;;;;;;7.00;3.50;;;;;17.86;52.05;101307.84;4941595;28;45419;-49
2022/06/09 08:50:05;;;;;;;;;8.00;4.25;;;;;17.97;52.05;101322.56;4941609;28;45352;-52
2022/06/09 08:52:42;;;;;;;;;4.25;3.00;;;;;18.04;51.86;101316.13;4942877;28;45362;-51
2022/06/09 08:55:33;;;;;;;;;3.50;3.25;;;;;18.08;51.68;101323.06;4942438;28;46403;-50
2022/06/09 08:58:24;;;;;;;;;6.00;4.75;;;;;18.06;51.65;101326.69;4942774;28;45430;-53
2022/06/09 09:00:57;;;;;;;;;3.25;3.00;;;;;18.03;51.57;101311.72;4940676;28;45735;-51
2022/06/09 09:03:28;;;;;;;;;4.50;3.50;;;;;18.16;51.63;101320.09;4942850;28;45315;-49
2022/06/09 09:05:59;;;;;;;;;5.50;4.00;;;;;18.18;51.28;101315.63;4942433;28;46234;-52
2022/06/09 09:08:25;;;;;;;;;4.25;4.00;;;;;18.24;51.59;101318.03;4941107;28;45772;-51
2022/06/09 09:11:26;;;;;;;;;7.25;4.50;;;;;18.28;51.56;101319.66;4941525;28;45315;-52
2022/06/09 09:14:12;;;;;;;;;4.50;3.75;;;;;18.22;51.29;101303.06;4942701;28;45295;-50
2022/06/09 09:16:44;;;;;;;;;3.75;3.75;;;;;18.30;51.09;101307.19;4942341;28;46430;-52
2022/06/09 09:19:33;;;;;;;;;5.50;5.00;;;;;18.38;50.95;101306.88;4942310;28;45391;-53
2022/06/09 09:22:14;;;;;;;;;3.75;2.50;;;;;18.40;50.91;101322.78;4942649;28;45315;-52
2022/06/09 09:24:42;;;;;;;;;4.50;3.25;;;;;18.38;51.00;101314.88;4942152;28;45373;-51
2022/06/09 09:27:17;;;;;;;;;4.50;4.50;;;;;18.43;50.65;101306.72;4942399;28;45298;-52
2022/06/09 09:30:04;;;;;;;;;3.00;3.00;;;;;18.48;50.37;101312.72;4942231;28;45160;-51
2022/06/09 09:32:38;;;;;;;;;6.75;5.00;;;;;18.42;50.01;101297.84;4942131;28;45180;-52
2022/06/09 09:35:08;;;;;;;;;3.00;3.00;;;;;18.61;50.09;101319.28;4942077;28;45540;-52
2022/06/09 09:37:44;;;;;;;;;4.75;3.75;;;;;18.67;50.42;101327.03;4941965;28;47671;-51
2022/06/09 09:40:21;;;;;;;;;4.75;3.00;;;;;18.75;50.24;101317.91;4941726;28;45392;-51
2022/06/09 09:42:48;;;;;;;;;3.75;1.00;;;;;18.80;50.02;101318.59;4940544;28;45265;-51
2022/06/09 09:45:30;;;;;;;;;3.25;2.25;;;;;18.84;50.28;101321.06;4942165;28;45184;-52
2022/06/09 09:47:59;;;;;;;;;6.50;3.25;;;;;18.92;50.48;101328.78;4941873;28;45267;-51
2022/06/09 09:50:38;;;;;;;;;5.75;4.00;;;;;18.99;49.95;101332.94;4941787;28;45348;-49
2022/06/09 09:53:20;;;;;;;;;3.50;2.00;;;;;19.06;50.36;101316.72;4941875;28;45369;-47
2022/06/09 09:55:56;;;;;;;;;7.00;4.00;;;;;19.15;49.97;101322.50;4941928;28;45460;-50
2022/06/09 09:58:46;;;;;;;;;4.00;2.50;;;;;19.22;49.84;101327.59;4941516;28;45480;-51
2022/06/09 10:01:14;;;;;;;;;5.00;4.00;;;;;19.32;49.73;101334.28;4941955;28;45375;-50
2022/06/09 10:09:49;;;;;;;;;7.25;2.75;;;;;19.76;49.35;101343.97;4941434;28;45736;-50
2022/06/09 10:12:31;;;;;;;;;4.25;4.00;;;;;19.83;49.07;101336.63;4941705;28;45321;-51
2022/06/09 10:15:11;;;;;;;;;8.25;4.25;;;;;19.97;49.10;101337.75;4941611;28;45173;-50
2022/06/09 10:17:36;;;;;;;;;0.75;0.00;;;;;20.13;48.79;101337.06;4941544;28;45327;-50
2022/06/09 10:20:13;;;;;;;;;4.25;4.00;;;;;20.32;48.56;101341.59;4941226;28;45374;-50
2022/06/09 10:22:40;;;;;;;;;3.50;2.00;;;;;20.46;48.50;101337.34;4941064;28;45355;-51
2022/06/09 10:25:27;;;;;;;;;4.25;3.00;;;;;20.55;48.58;101348.50;4941428;28;45484;-49
2022/06/09 10:28:10;;;;;;;;;4.00;1.25;;;;;20.52;48.40;101343.31;4941443;28;45411;-48
2022/06/09 10:30:43;;;;;;;;;3.75;3.75;;;;;20.54;48.30;101338.75;4939850;28;45380;-53
2022/06/09 10:33:31;;;;;;;;;3.00;3.00;;;;;20.57;48.36;101346.66;4928731;28;45363;-49
2022/06/09 10:36:02;;;;;;;;;5.75;3.00;;;;;20.59;48.39;101352.75;4941426;28;45274;-52
2022/06/09 10:38:46;;;;;;;;;3.00;3.00;;;;;20.51;48.30;101352.28;4941103;28;45309;-50
2022/06/09 10:41:19;;;;;;;;;6.75;4.25;;;;;20.51;47.86;101365.63;4940993;28;46405;-51
2022/06/09 10:43:57;;;;;;;;;3.25;1.50;;;;;20.49;47.75;101360.34;4941039;28;45256;-52
2022/06/09 10:46:43;;;;;;;;;5.75;3.00;;;;;20.50;48.29;101362.06;4941375;28;45295;-49
2022/06/09 10:55:33;;;;;;;;;2.00;2.00;;;;;20.51;47.91;101366.47;4940888;28;45398;-52
2022/06/09 10:58:27;;;;;;;;;2.50;2.50;;;;;20.61;47.16;101364.25;4941256;28;45307;-47
2022/06/09 11:00:53;;;;;;;;;5.25;3.00;;;;;20.71;47.06;101357.56;4939674;28;45477;-54
2022/06/09 11:03:23;;;;;;;;;3.25;1.25;;;;;20.86;46.88;101355.13;4940834;28;46705;-51
2022/06/09 11:06:03;;;;;;;;;3.00;1.75;;;;;21.04;47.14;101364.94;4941382;28;45498;-50
2022/06/09 11:08:44;;;;;;;;;3.50;3.50;;;;;21.27;47.19;101365.59;4940715;28;45180;-50
2022/06/09 11:11:19;;;;;;;;;2.50;2.50;;;;;21.50;47.36;101368.94;4940851;28;45242;-51
2022/06/09 11:13:44;;;;;;;;;3.25;1.75;;;;;21.74;47.35;101374.88;4940817;28;45351;-50
2022/06/09 11:16:31;;;;;;;;;3.00;1.00;;;;;21.99;46.85;101370.94;4940551;28;45374;-52
2022/06/09 11:19:02;;;;;;;;;6.00;3.00;;;;;22.20;46.98;101375.16;4940940;28;45236;-51
2022/06/09 11:21:44;;;;;;;;;3.00;3.00;;;;;22.40;46.75;101365.19;4939347;28;45368;-51
2022/06/09 11:24:24;;;;;;;;;4.25;2.00;;;;;22.54;46.53;101354.63;4940464;28;45454;-50
2022/06/09 11:27:01;;;;;;;;;1.50;0.75;;;;;22.62;46.22;101375.63;4940848;28;45333;-51
2022/06/09 11:29:40;;;;;;;;;2.00;2.00;;;;;22.78;46.29;101378.31;4939529;28;45285;-50
2022/06/09 11:32:18;;;;;;;;;3.00;1.00;;;;;22.92;46.24;101372.19;4940530;28;45441;-51
2022/06/09 11:35:20;;;;;;;;;4.75;3.00;;;;;23.12;45.75;101373.72;4942596;28;45357;-51
2022/06/09 11:38:14;;;;;;;;;4.00;2.25;;;;;23.30;45.66;101374.50;4943668;28;45228;-49
2022/06/09 11:40:57;;;;;;;;;2.00;2.00;;;;;23.44;45.55;101386.25;4934931;28;45193;-50
2022/06/09 11:43:45;;;;;;;;;3.75;2.00;;;;;23.54;45.22;101385.59;4943890;28;45308;-48
2022/06/09 11:46:23;;;;;;;;;5.50;2.50;;;;;23.63;45.07;101386.88;4937137;28;47149;-47
2022/06/09 11:48:53;;;;;;;;;3.75;2.25;;;;;23.74;45.06;101380.03;4943443;28;45368;-47
2022/06/09 11:51:22;;;;;;;;;5.00;3.00;;;;;23.84;44.95;101376.69;4943725;28;45248;-52
2022/06/09 11:53:54;;;;;;;;;3.00;2.75;;;;;23.96;44.65;101385.88;4941967;28;45357;-48
2022/06/09 11:56:34;;;;;;;;;4.00;2.00;;;;;24.05;44.85;101386.25;4943683;28;46327;-51
2022/06/09 11:59:21;;;;;;;;;1.00;1.00;;;;;24.15;44.66;101379.34;4943616;28;45392;-48
2022/06/09 12:02:16;;;;;;;;;1.25;1.25;;;;;24.20;44.46;101382.66;4943525;28;45427;-49